Time;durP1;ratioP1;P1;durP2;ratioP2;P2;SDS_P1;SDS_P2;PMS_P1;PMS_P2;Temp;Humidity;BMP_temperature;BMP_pressure;BME280_temperature;BME280_humidity;BME280_pressure;Samples;Min_cycle;Max_cycle;Signal;HPM_P1;HPM_P2
2022/06/15 00:01:05;;;;;;;15.15;1.90;;;14.10;85.30;;;;;;5026785;27;20071;-70
2022/06/15 00:03:34;;;;;;;1.27;0.80;;;14.00;85.30;;;;;;5027283;27;20056;-69
2022/06/15 00:06:07;;;;;;;2.45;0.77;;;14.00;85.40;;;;;;5028552;27;20396;-71
2022/06/15 00:08:34;;;;;;;3.35;0.98;;;14.10;85.40;;;;;;5027196;27;20025;-70
2022/06/15 00:11:10;;;;;;;5.90;1.00;;;14.10;85.30;;;;;;5023928;27;20050;-67
2022/06/15 00:13:37;;;;;;;1.75;1.02;;;14.00;85.20;;;;;;5038166;27;20040;-70
2022/06/15 00:16:05;;;;;;;4.40;0.90;;;14.00;85.10;;;;;;5033937;27;20029;-71
2022/06/15 00:18:33;;;;;;;4.47;1.10;;;14.00;85.00;;;;;;5036129;27;20044;-69
2022/06/15 00:21:00;;;;;;;2.72;0.85;;;14.00;84.90;;;;;;5023577;27;20063;-69
2022/06/15 00:23:29;;;;;;;3.17;1.10;;;14.00;85.10;;;;;;5028179;27;20074;-69
2022/06/15 00:25:55;;;;;;;3.67;0.73;;;13.90;85.10;;;;;;5028300;27;20495;-69
2022/06/15 00:28:22;;;;;;;3.15;1.60;;;14.00;85.10;;;;;;5032560;27;20380;-69
2022/06/15 00:30:50;;;;;;;2.88;0.75;;;14.00;85.10;;;;;;5032130;27;20410;-69
2022/06/15 00:33:19;;;;;;;8.07;1.73;;;13.90;85.30;;;;;;5025088;27;20041;-69
2022/06/15 00:35:59;;;;;;;3.63;1.08;;;14.00;85.80;;;;;;5033688;27;20068;-69
2022/06/15 00:38:49;;;;;;;4.95;1.33;;;14.00;85.70;;;;;;5028709;27;20037;-70
2022/06/15 00:41:19;;;;;;;3.35;1.27;;;13.90;85.50;;;;;;5026580;27;20070;-69
2022/06/15 00:43:51;;;;;;;5.15;1.63;;;14.00;85.60;;;;;;5030920;27;20666;-71
2022/06/15 00:46:23;;;;;;;3.72;1.10;;;13.90;85.60;;;;;;5035803;27;20104;-69
2022/06/15 00:49:04;;;;;;;3.20;1.42;;;13.90;85.60;;;;;;5028357;27;20068;-69
2022/06/15 00:51:31;;;;;;;3.40;1.23;;;13.90;85.70;;;;;;5033973;27;20033;-69
2022/06/15 00:53:59;;;;;;;2.33;1.23;;;13.90;85.70;;;;;;5025608;27;20025;-68
2022/06/15 00:56:28;;;;;;;1.98;0.93;;;13.90;85.90;;;;;;5032391;27;20448;-70
2022/06/15 00:59:01;;;;;;;4.55;1.50;;;13.90;85.80;;;;;;5024753;27;20399;-69
2022/06/15 01:01:28;;;;;;;4.32;1.33;;;13.90;85.90;;;;;;5029451;27;20038;-70
2022/06/15 01:03:57;;;;;;;5.90;1.33;;;13.90;85.90;;;;;;5032065;27;20118;-71
2022/06/15 01:06:29;;;;;;;21.50;2.78;;;13.90;86.40;;;;;;5025028;27;20500;-69
2022/06/15 01:09:19;;;;;;;8.05;1.33;;;13.90;86.60;;;;;;5028696;27;20377;-70
2022/06/15 01:12:13;;;;;;;6.45;2.25;;;13.90;86.70;;;;;;5028116;27;20051;-69
2022/06/15 01:15:13;;;;;;;4.90;1.35;;;14.00;86.70;;;;;;5031084;27;20978;-68
2022/06/15 01:18:04;;;;;;;4.05;1.80;;;13.90;86.70;;;;;;5024309;27;20026;-69
2022/06/15 01:20:45;;;;;;;5.93;2.05;;;13.90;86.80;;;;;;5031290;27;20068;-70
2022/06/15 01:23:18;;;;;;;5.32;1.20;;;13.90;86.80;;;;;;5033458;27;20119;-69
2022/06/15 01:26:05;;;;;;;2.88;1.10;;;13.90;86.90;;;;;;5031282;27;20038;-69
2022/06/15 01:28:58;;;;;;;6.15;1.20;;;13.90;87.10;;;;;;5029452;27;20038;-69
2022/06/15 01:31:49;;;;;;;3.90;1.95;;;13.90;87.20;;;;;;5028462;27;20037;-68
2022/06/15 01:34:40;;;;;;;5.22;1.77;;;14.00;87.40;;;;;;5026335;28;20149;-69
2022/06/15 01:37:30;;;;;;;15.30;2.50;;;14.00;87.70;;;;;;5032314;27;20477;-69
2022/06/15 01:40:25;;;;;;;6.10;1.33;;;14.00;88.00;;;;;;5030861;27;20034;-72
2022/06/15 01:42:57;;;;;;;2.17;1.02;;;14.00;88.30;;;;;;5023843;28;20038;-69
2022/06/15 01:45:29;;;;;;;4.82;1.17;;;14.00;88.40;;;;;;5034203;27;20028;-70
2022/06/15 01:47:59;;;;;;;4.10;1.30;;;14.00;88.40;;;;;;5024224;27;20075;-69
2022/06/15 01:50:32;;;;;;;4.00;1.88;;;14.00;88.40;;;;;;5026179;28;20033;-71
2022/06/15 01:53:21;;;;;;;7.95;2.80;;;14.00;88.20;;;;;;5029329;27;20037;-70
2022/06/15 01:55:56;;;;;;;3.15;1.73;;;14.00;88.20;;;;;;5033015;27;20025;-69
2022/06/15 01:58:27;;;;;;;2.53;1.58;;;14.00;88.30;;;;;;5028865;27;20090;-69
2022/06/15 02:01:12;;;;;;;6.70;2.22;;;14.00;88.40;;;;;;5089867;28;20630;-70
2022/06/15 02:04:05;;;;;;;5.90;1.80;;;14.00;88.40;;;;;;5104402;27;20087;-69
2022/06/15 02:06:56;;;;;;;5.75;1.73;;;14.00;88.30;;;;;;5035219;27;20381;-69
2022/06/15 02:09:45;;;;;;;3.65;1.77;;;14.00;88.50;;;;;;5029610;27;20037;-70
2022/06/15 02:12:14;;;;;;;8.27;2.72;;;14.00;89.00;;;;;;5030515;27;20462;-69
2022/06/15 02:14:50;;;;;;;14.98;2.15;;;14.00;89.20;;;;;;5032129;27;20033;-69
2022/06/15 02:17:18;;;;;;;5.38;1.85;;;14.00;89.20;;;;;;5025357;27;20399;-71
2022/06/15 02:19:54;;;;;;;16.33;3.45;;;14.00;89.50;;;;;;5033794;27;20102;-70
2022/06/15 02:22:24;;;;;;;28.70;1.95;;;14.00;89.80;;;;;;5023816;27;20044;-70
2022/06/15 02:24:56;;;;;;;4.50;1.75;;;14.00;89.70;;;;;;5030045;28;20514;-69
2022/06/15 02:27:26;;;;;;;3.65;1.30;;;14.00;89.50;;;;;;5023576;28;20049;-70
2022/06/15 02:29:56;;;;;;;5.70;1.38;;;14.00;89.10;;;;;;5020030;27;20103;-69
2022/06/15 02:32:24;;;;;;;2.65;1.15;;;13.90;88.50;;;;;;5027195;28;20116;-69
2022/06/15 02:34:51;;;;;;;3.33;1.30;;;13.90;88.00;;;;;;5029010;27;20750;-69
2022/06/15 02:37:18;;;;;;;3.53;1.08;;;13.90;87.80;;;;;;5027132;27;20107;-68
2022/06/15 02:39:44;;;;;;;3.65;0.95;;;13.90;87.60;;;;;;5039658;28;20773;-68
2022/06/15 02:42:32;;;;;;;11.45;1.58;;;13.80;87.40;;;;;;5022553;28;20120;-69
2022/06/15 02:45:06;;;;;;;9.45;1.02;;;13.80;88.10;;;;;;5022995;28;20025;-69
2022/06/15 02:47:36;;;;;;;9.63;2.20;;;13.80;88.60;;;;;;5034387;28;20105;-70
2022/06/15 02:50:03;;;;;;;5.25;2.38;;;13.80;88.50;;;;;;5032068;28;20045;-69
2022/06/15 02:52:35;;;;;;;8.05;2.55;;;13.80;88.30;;;;;;5026179;28;20037;-71
2022/06/15 02:55:02;;;;;;;9.75;3.80;;;13.80;88.50;;;;;;5023105;28;20038;-69
2022/06/15 02:57:29;;;;;;;15.50;3.25;;;13.80;88.60;;;;;;5034766;28;20032;-69
2022/06/15 02:59:56;;;;;;;5.07;2.55;;;13.80;88.70;;;;;;5026598;28;20045;-71
2022/06/15 03:02:22;;;;;;;8.77;3.30;;;13.80;88.90;;;;;;5025694;28;20025;-68
2022/06/15 03:04:50;;;;;;;6.78;3.42;;;13.80;88.80;;;;;;5026560;28;20525;-71
2022/06/15 03:07:20;;;;;;;6.40;3.45;;;13.80;89.20;;;;;;5022302;28;20022;-68
2022/06/15 03:09:46;;;;;;;14.18;3.75;;;13.80;89.70;;;;;;5023884;28;20128;-68
2022/06/15 03:12:13;;;;;;;15.75;8.15;;;13.80;90.10;;;;;;5030912;28;20524;-68
2022/06/15 03:14:39;;;;;;;24.02;16.02;;;13.90;90.30;;;;;;5025628;28;20034;-69
2022/06/15 03:17:06;;;;;;;19.90;11.57;;;13.90;90.30;;;;;;5026790;28;20034;-69
2022/06/15 03:19:32;;;;;;;15.98;9.07;;;13.90;90.20;;;;;;5029384;28;20036;-69
2022/06/15 03:21:59;;;;;;;9.55;3.97;;;13.80;90.00;;;;;;5026111;28;20665;-71
2022/06/15 03:24:43;;;;;;;8.85;4.07;;;13.80;89.90;;;;;;5025601;28;20476;-72
2022/06/15 03:27:10;;;;;;;7.40;3.13;;;13.80;89.70;;;;;;5088592;28;20121;-69
2022/06/15 03:29:36;;;;;;;4.70;2.90;;;13.80;89.40;;;;;;5032270;28;20042;-71
2022/06/15 03:32:03;;;;;;;8.02;3.30;;;13.80;89.30;;;;;;5022698;28;20034;-71
2022/06/15 03:34:30;;;;;;;7.72;2.65;;;13.70;89.10;;;;;;5027930;27;20388;-69
2022/06/15 03:36:56;;;;;;;7.72;2.47;;;13.70;89.10;;;;;;5024658;27;20034;-70
2022/06/15 03:39:23;;;;;;;4.28;2.22;;;13.70;89.10;;;;;;5029825;27;20104;-71
2022/06/15 03:41:49;;;;;;;4.13;2.15;;;13.70;89.10;;;;;;5038304;27;20427;-69
2022/06/15 03:44:16;;;;;;;7.45;2.63;;;13.70;89.10;;;;;;5027798;27;20037;-69
2022/06/15 03:46:42;;;;;;;5.53;1.98;;;13.70;89.00;;;;;;5031451;27;20033;-71
2022/06/15 03:49:09;;;;;;;6.22;2.53;;;13.70;89.00;;;;;;5032871;27;20037;-68
2022/06/15 03:51:35;;;;;;;6.25;1.77;;;13.70;89.00;;;;;;5035067;27;20079;-68
2022/06/15 03:54:02;;;;;;;3.05;1.77;;;13.70;88.90;;;;;;5030774;27;20026;-69
2022/06/15 03:56:47;;;;;;;7.55;1.58;;;13.70;88.90;;;;;;5031049;27;20065;-68
2022/06/15 03:59:13;;;;;;;7.68;2.00;;;13.70;88.70;;;;;;5031588;27;20033;-68
2022/06/15 04:01:40;;;;;;;3.60;1.80;;;13.70;88.70;;;;;;5027837;27;20061;-69
2022/06/15 04:04:06;;;;;;;5.95;3.28;;;13.70;88.50;;;;;;5032765;27;20077;-69
2022/06/15 04:06:33;;;;;;;3.67;2.30;;;13.70;88.40;;;;;;5036741;27;20067;-70
2022/06/15 04:09:00;;;;;;;3.92;3.00;;;13.70;88.20;;;;;;5102225;28;20371;-68
2022/06/15 04:14:11;;;;;;;8.85;6.25;;;13.50;87.20;;;;;;5031793;27;20094;-67
2022/06/15 04:16:38;;;;;;;18.08;12.48;;;13.50;87.70;;;;;;5034761;27;20050;-69
2022/06/15 04:19:07;;;;;;;11.40;7.72;;;13.50;88.00;;;;;;5028342;27;20033;-75
2022/06/15 04:21:33;;;;;;;6.13;4.75;;;13.50;88.20;;;;;;5041409;27;20087;-68
2022/06/15 04:24:00;;;;;;;4.97;3.30;;;13.40;88.50;;;;;;5036945;27;20120;-71
2022/06/15 04:26:27;;;;;;;6.75;2.75;;;13.50;88.70;;;;;;5035591;27;20133;-70
2022/06/15 04:28:53;;;;;;;7.15;2.65;;;13.50;88.80;;;;;;5037288;27;20029;-72
2022/06/15 04:31:20;;;;;;;4.47;2.50;;;13.50;88.70;;;;;;5051292;27;20067;-71
2022/06/15 04:33:46;;;;;;;2.30;1.88;;;13.50;88.50;;;;;;5027329;27;20629;-72
2022/06/15 04:36:15;;;;;;;47.28;31.17;;;13.50;88.30;;;;;;5025898;27;20029;-71
2022/06/15 04:38:42;;;;;;;37.95;27.73;;;13.40;87.90;;;;;;5036871;27;20393;-71
2022/06/15 04:41:08;;;;;;;17.48;11.95;;;13.40;87.80;;;;;;5029315;28;20044;-69
2022/06/15 04:43:35;;;;;;;7.60;5.32;;;13.40;87.50;;;;;;5034421;27;20026;-69
2022/06/15 04:46:03;;;;;;;7.47;3.78;;;13.40;87.40;;;;;;5088391;28;20464;-69
2022/06/15 04:48:30;;;;;;;6.20;2.40;;;13.40;87.40;;;;;;5036603;28;20506;-69
2022/06/15 04:50:56;;;;;;;5.38;1.92;;;13.40;87.50;;;;;;5030159;28;20682;-69
2022/06/15 04:53:23;;;;;;;2.58;2.08;;;13.30;87.50;;;;;;5048203;27;20022;-68
2022/06/15 04:55:49;;;;;;;6.22;2.70;;;13.40;87.70;;;;;;5039243;27;20058;-71
2022/06/15 04:58:16;;;;;;;2.88;2.00;;;13.30;87.50;;;;;;5018753;28;20401;-70
2022/06/15 05:00:42;;;;;;;5.47;2.35;;;13.30;87.40;;;;;;5039476;27;20162;-71
2022/06/15 05:03:09;;;;;;;10.02;2.85;;;13.30;87.10;;;;;;5030925;28;20120;-70
2022/06/15 05:05:36;;;;;;;5.93;2.03;;;13.30;86.90;;;;;;5040519;27;20017;-71
2022/06/15 05:08:03;;;;;;;4.93;2.47;;;13.30;87.10;;;;;;5035503;27;20522;-70
2022/06/15 05:10:29;;;;;;;8.10;2.05;;;13.30;87.30;;;;;;5041303;28;20041;-70
2022/06/15 05:12:56;;;;;;;3.55;2.33;;;13.40;87.50;;;;;;5040619;27;20036;-71
2022/06/15 05:15:22;;;;;;;4.93;1.95;;;13.40;87.80;;;;;;5040832;27;20513;-70
2022/06/15 05:17:50;;;;;;;4.90;2.25;;;13.40;87.90;;;;;;5027081;27;20042;-69
2022/06/15 05:20:17;;;;;;;8.20;3.10;;;13.40;88.10;;;;;;5029317;28;20496;-70
2022/06/15 05:22:49;;;;;;;5.50;2.70;;;13.40;88.30;;;;;;5039726;27;20507;-70
2022/06/15 05:25:15;;;;;;;4.18;1.90;;;13.40;88.50;;;;;;5024423;27;20030;-70
2022/06/15 05:27:42;;;;;;;6.10;3.25;;;13.40;88.70;;;;;;5036090;27;20029;-71
2022/06/15 05:30:09;;;;;;;4.65;2.42;;;13.40;88.70;;;;;;5029756;28;20116;-70
2022/06/15 05:32:36;;;;;;;5.65;1.98;;;13.40;88.70;;;;;;5034714;27;20017;-70
2022/06/15 05:35:02;;;;;;;5.43;1.60;;;13.40;88.70;;;;;;5037343;27;20125;-70
2022/06/15 05:37:31;;;;;;;5.38;1.73;;;13.50;88.70;;;;;;5035016;27;20065;-70
2022/06/15 05:39:57;;;;;;;2.67;1.90;;;13.50;88.60;;;;;;5027379;28;20136;-70
2022/06/15 05:42:27;;;;;;;6.93;2.38;;;13.40;88.40;;;;;;5034555;27;20022;-71
2022/06/15 05:44:55;;;;;;;3.00;1.63;;;13.40;88.40;;;;;;5034091;28;20447;-71
2022/06/15 05:47:21;;;;;;;2.67;2.22;;;13.40;88.40;;;;;;5033739;27;20021;-70
2022/06/15 05:49:48;;;;;;;7.40;2.65;;;13.40;88.80;;;;;;5036577;27;20028;-70
2022/06/15 05:52:14;;;;;;;3.22;1.95;;;13.40;88.40;;;;;;5033164;27;20026;-70
2022/06/15 05:54:41;;;;;;;5.90;2.53;;;13.40;88.50;;;;;;5043166;27;20124;-70
2022/06/15 05:57:15;;;;;;;6.63;2.28;;;13.40;88.60;;;;;;5030717;28;20026;-71
2022/06/15 05:59:42;;;;;;;5.85;2.42;;;13.40;88.60;;;;;;5034110;27;20034;-71
2022/06/15 06:02:11;;;;;;;6.22;1.92;;;13.40;88.80;;;;;;5034964;27;20029;-70
2022/06/15 06:04:37;;;;;;;4.82;2.38;;;13.40;88.90;;;;;;5027985;27;20025;-70
2022/06/15 06:07:04;;;;;;;3.63;2.05;;;13.30;88.70;;;;;;5030344;27;20033;-70
2022/06/15 06:09:31;;;;;;;3.70;2.28;;;13.30;88.60;;;;;;5027918;28;20033;-70
2022/06/15 06:11:58;;;;;;;6.75;2.70;;;13.30;88.50;;;;;;5042063;27;20502;-71
2022/06/15 06:14:24;;;;;;;4.30;2.70;;;13.30;88.20;;;;;;5042870;28;20021;-71
2022/06/15 06:16:51;;;;;;;15.73;3.58;;;13.30;88.10;;;;;;5032719;27;20037;-70
2022/06/15 06:19:17;;;;;;;9.80;3.38;;;13.30;88.10;;;;;;5035636;27;20020;-71
2022/06/15 06:21:44;;;;;;;5.35;3.20;;;13.30;87.90;;;;;;5040398;27;20028;-71
2022/06/15 06:24:11;;;;;;;6.95;3.28;;;13.30;87.90;;;;;;5031636;28;20069;-70
2022/06/15 06:26:38;;;;;;;5.03;3.17;;;13.30;87.90;;;;;;5034129;28;20030;-71
2022/06/15 06:29:06;;;;;;;8.15;3.60;;;13.30;87.90;;;;;;5030448;27;20025;-70
2022/06/15 06:31:33;;;;;;;4.45;3.38;;;13.20;87.90;;;;;;5037085;28;20038;-70
2022/06/15 06:33:59;;;;;;;7.97;3.25;;;13.20;87.90;;;;;;5037566;28;20037;-70
2022/06/15 06:36:31;;;;;;;12.10;3.50;;;13.20;87.90;;;;;;5027792;28;20039;-70
2022/06/15 06:39:00;;;;;;;5.80;4.00;;;13.20;88.00;;;;;;5027642;27;20026;-71
2022/06/15 06:41:29;;;;;;;6.50;4.18;;;13.20;88.00;;;;;;5039426;28;20028;-71
2022/06/15 06:43:56;;;;;;;13.02;4.07;;;13.20;88.20;;;;;;5023959;28;20484;-70
2022/06/15 06:46:23;;;;;;;4.85;3.95;;;13.20;88.30;;;;;;5036731;28;20030;-70
2022/06/15 06:48:49;;;;;;;8.73;3.75;;;13.20;88.50;;;;;;5032811;28;20063;-70
2022/06/15 06:51:16;;;;;;;7.78;4.47;;;13.20;88.60;;;;;;5037322;28;20138;-71
2022/06/15 06:53:42;;;;;;;8.60;4.80;;;13.20;88.60;;;;;;5030358;28;20027;-70
2022/06/15 06:56:10;;;;;;;5.30;3.40;;;13.20;88.70;;;;;;5031599;28;20072;-71
2022/06/15 06:58:37;;;;;;;9.48;4.10;;;13.20;88.80;;;;;;5045269;28;20137;-71
2022/06/15 07:01:03;;;;;;;5.70;3.33;;;13.20;89.10;;;;;;5037129;28;20426;-70
2022/06/15 07:03:30;;;;;;;9.82;3.50;;;13.20;89.40;;;;;;5028857;28;20034;-71
2022/06/15 07:06:02;;;;;;;5.70;2.80;;;13.20;89.60;;;;;;5040856;28;20041;-71
2022/06/15 07:08:28;;;;;;;4.25;2.63;;;13.20;89.50;;;;;;5040221;28;20033;-71
2022/06/15 07:10:55;;;;;;;2.85;2.38;;;13.20;89.40;;;;;;5035087;28;20037;-71
2022/06/15 07:13:22;;;;;;;4.85;2.55;;;13.20;89.40;;;;;;5045747;27;20018;-71
2022/06/15 07:15:49;;;;;;;8.57;3.25;;;13.20;89.30;;;;;;5051612;27;20228;-71
2022/06/15 07:18:16;;;;;;;5.72;2.67;;;13.20;89.40;;;;;;5034780;27;20030;-71
2022/06/15 07:20:42;;;;;;;4.05;2.70;;;13.20;89.50;;;;;;5035869;27;20026;-71
2022/06/15 07:23:09;;;;;;;2.63;1.63;;;13.20;89.50;;;;;;5042376;27;20489;-71
2022/06/15 07:25:35;;;;;;;3.28;2.30;;;13.30;89.50;;;;;;5038927;27;20068;-71
2022/06/15 07:28:03;;;;;;;3.30;1.80;;;13.30;89.60;;;;;;5037576;27;20018;-71
2022/06/15 07:30:30;;;;;;;5.55;2.40;;;13.30;89.70;;;;;;5046971;27;20045;-70
2022/06/15 07:32:56;;;;;;;4.75;2.65;;;13.30;89.80;;;;;;5036499;27;20037;-71
2022/06/15 07:35:31;;;;;;;5.50;3.10;;;13.30;90.00;;;;;;5029031;27;20009;-71
2022/06/15 07:37:57;;;;;;;7.32;3.22;;;13.30;90.00;;;;;;5026899;28;20021;-71
2022/06/15 07:40:25;;;;;;;6.40;4.22;;;13.30;90.10;;;;;;5044452;27;20094;-71
2022/06/15 07:42:53;;;;;;;6.13;2.63;;;13.30;90.10;;;;;;5034013;27;20042;-71
2022/06/15 07:45:22;;;;;;;4.55;2.95;;;13.40;90.30;;;;;;5034995;27;20045;-71
2022/06/15 07:50:34;;;;;;;7.82;2.90;;;13.40;90.50;;;;;;5037853;27;20041;-71
2022/06/15 07:53:03;;;;;;;7.93;2.78;;;13.50;90.50;;;;;;5035306;27;20829;-71
2022/06/15 07:55:34;;;;;;;4.93;3.05;;;13.50;90.60;;;;;;5030845;27;20052;-71
2022/06/15 07:58:01;;;;;;;5.97;3.53;;;13.50;90.60;;;;;;5037773;27;20116;-71
2022/06/15 08:00:29;;;;;;;5.25;2.67;;;13.50;90.70;;;;;;5043243;27;20438;-71
2022/06/15 08:02:58;;;;;;;2.72;2.00;;;13.50;90.70;;;;;;5032416;27;20068;-71
2022/06/15 08:05:26;;;;;;;4.50;1.73;;;13.50;90.70;;;;;;5029690;27;20053;-71
2022/06/15 08:07:53;;;;;;;4.43;2.13;;;13.60;90.80;;;;;;5044424;27;20045;-71
2022/06/15 08:10:23;;;;;;;1.73;1.27;;;13.60;90.80;;;;;;5031242;27;20078;-71
2022/06/15 08:12:50;;;;;;;2.65;1.23;;;13.60;90.90;;;;;;5039904;27;20016;-71
2022/06/15 08:15:17;;;;;;;3.45;1.77;;;13.70;90.90;;;;;;5037716;27;20485;-71
2022/06/15 08:17:45;;;;;;;4.50;1.70;;;13.70;90.90;;;;;;5032595;27;20033;-71
2022/06/15 08:20:21;;;;;;;4.78;2.17;;;13.80;90.80;;;;;;5026510;27;20116;-71
2022/06/15 08:22:51;;;;;;;3.10;2.53;;;13.80;90.80;;;;;;5025642;28;20029;-71
2022/06/15 08:25:23;;;;;;;5.93;2.08;;;13.80;90.80;;;;;;5033143;27;20026;-71
2022/06/15 08:27:50;;;;;;;7.85;2.78;;;13.80;90.80;;;;;;5036963;27;20026;-71
2022/06/15 08:30:18;;;;;;;4.45;2.40;;;13.80;90.90;;;;;;5045961;27;20404;-71
2022/06/15 08:32:45;;;;;;;8.57;3.55;;;13.90;91.00;;;;;;5035408;27;20460;-70
2022/06/15 08:35:12;;;;;;;4.35;1.83;;;13.90;91.20;;;;;;5039181;27;20039;-70
2022/06/15 08:37:38;;;;;;;5.32;1.88;;;13.90;91.30;;;;;;5039019;27;20495;-71
2022/06/15 08:40:06;;;;;;;3.70;1.63;;;13.90;91.30;;;;;;5031043;27;20161;-71
2022/06/15 08:42:56;;;;;;;4.43;1.42;;;13.90;91.40;;;;;;5031530;27;20025;-71
2022/06/15 08:45:37;;;;;;;4.45;1.50;;;13.90;91.50;;;;;;5037791;27;20068;-71
2022/06/15 08:48:31;;;;;;;2.78;1.65;;;14.00;91.60;;;;;;5031557;27;20032;-71
2022/06/15 08:51:04;;;;;;;7.40;1.80;;;14.00;91.60;;;;;;5031999;27;20124;-70
2022/06/15 08:53:46;;;;;;;4.43;1.48;;;14.00;91.60;;;;;;5040204;27;20465;-71
2022/06/15 08:56:25;;;;;;;4.05;1.48;;;14.10;91.60;;;;;;5036166;27;20074;-70
2022/06/15 08:59:05;;;;;;;6.20;2.63;;;14.10;91.60;;;;;;5027953;27;20040;-71
2022/06/15 09:01:50;;;;;;;3.83;1.50;;;14.10;91.60;;;;;;5017536;27;20044;-70
2022/06/15 09:04:41;;;;;;;6.25;1.17;;;14.20;91.50;;;;;;5023266;27;20046;-71
2022/06/15 09:07:17;;;;;;;6.13;1.80;;;14.20;91.30;;;;;;5015180;28;20117;-71
2022/06/15 09:09:46;;;;;;;3.53;1.40;;;14.30;91.30;;;;;;5026896;27;20503;-71
2022/06/15 09:15:31;;;;;;;11.32;2.15;;;14.40;91.10;;;;;;5022721;27;20048;-71
2022/06/15 09:18:02;;;;;;;7.13;1.60;;;14.40;91.00;;;;;;5018351;27;20037;-71
2022/06/15 09:20:38;;;;;;;3.50;1.52;;;14.40;90.90;;;;;;5034355;27;20041;-71
2022/06/15 09:23:34;;;;;;;11.82;2.28;;;14.40;90.80;;;;;;5023359;27;20530;-71
2022/06/15 09:26:09;;;;;;;5.05;1.67;;;14.50;90.70;;;;;;5025660;27;20038;-71
2022/06/15 09:28:44;;;;;;;1.38;1.13;;;14.50;90.50;;;;;;5029341;27;20041;-72
2022/06/15 09:31:18;;;;;;;5.80;1.92;;;14.50;90.40;;;;;;5023810;27;20607;-71
2022/06/15 09:33:52;;;;;;;7.68;1.50;;;14.60;90.30;;;;;;5021717;27;20809;-72
2022/06/15 09:36:26;;;;;;;2.70;1.02;;;14.60;90.30;;;;;;5024120;27;20030;-71
2022/06/15 09:38:52;;;;;;;3.10;1.23;;;14.70;90.30;;;;;;5029516;27;20042;-72
2022/06/15 09:41:27;;;;;;;4.03;1.40;;;14.70;90.30;;;;;;5087125;28;20384;-71
2022/06/15 09:44:06;;;;;;;5.60;1.40;;;14.80;90.10;;;;;;5087553;27;20427;-71
2022/06/15 09:46:45;;;;;;;4.32;1.25;;;14.90;90.40;;;;;;5023040;27;20491;-71
2022/06/15 09:49:31;;;;;;;5.55;1.60;;;14.90;90.00;;;;;;5024297;27;20052;-71
2022/06/15 09:52:05;;;;;;;1.13;1.02;;;15.00;89.70;;;;;;5023882;27;20073;-71
2022/06/15 09:54:43;;;;;;;10.05;1.48;;;15.10;89.10;;;;;;5026244;27;20369;-71
2022/06/15 09:57:11;;;;;;;2.83;1.23;;;15.10;88.80;;;;;;5029010;27;20033;-71
2022/06/15 09:59:38;;;;;;;10.70;1.63;;;15.10;88.30;;;;;;5022331;27;20035;-71
2022/06/15 10:02:15;;;;;;;2.28;1.52;;;15.20;88.00;;;;;;5028271;27;20380;-71
2022/06/15 10:04:43;;;;;;;3.63;1.38;;;15.20;87.90;;;;;;5030766;27;20117;-71
2022/06/15 10:07:29;;;;;;;7.75;1.40;;;15.20;87.90;;;;;;5022403;27;20033;-71
2022/06/15 10:10:13;;;;;;;13.75;4.88;;;15.20;87.80;;;;;;5020460;27;20074;-71
2022/06/15 10:12:58;;;;;;;14.30;3.95;;;15.30;87.60;;;;;;5023296;27;20495;-71
2022/06/15 10:15:29;;;;;;;5.28;3.35;;;15.30;87.50;;;;;;5027593;27;20380;-71
2022/06/15 10:18:21;;;;;;;11.45;2.75;;;15.40;87.30;;;;;;5022672;27;20068;-71
2022/06/15 10:20:56;;;;;;;8.60;3.10;;;15.50;87.30;;;;;;5023687;27;20048;-71
2022/06/15 10:23:33;;;;;;;10.02;3.25;;;15.50;87.60;;;;;;5018337;27;20029;-71
2022/06/15 10:26:01;;;;;;;5.00;3.33;;;15.60;87.70;;;;;;5018054;27;20030;-70
2022/06/15 10:28:36;;;;;;;8.88;2.33;;;15.70;87.50;;;;;;5020046;28;20036;-70
2022/06/15 10:31:13;;;;;;;5.07;2.03;;;15.70;86.70;;;;;;5018686;27;20038;-70
2022/06/15 10:33:46;;;;;;;3.17;2.03;;;15.70;85.90;;;;;;5032081;27;20030;-71
2022/06/15 10:36:34;;;;;;;4.88;2.13;;;15.70;85.60;;;;;;5017491;28;20058;-71
2022/06/15 10:39:21;;;;;;;3.38;2.03;;;15.80;85.40;;;;;;5019051;28;20033;-71
2022/06/15 10:41:48;;;;;;;5.50;2.38;;;15.80;85.20;;;;;;5032421;27;20027;-71
2022/06/15 10:44:19;;;;;;;6.22;2.28;;;15.80;85.10;;;;;;5019976;27;20024;-71
2022/06/15 10:46:56;;;;;;;7.40;4.13;;;15.80;84.90;;;;;;5023336;27;20519;-70
2022/06/15 10:49:24;;;;;;;3.40;2.38;;;15.90;84.90;;;;;;5017716;28;20075;-72
2022/06/15 10:51:52;;;;;;;17.42;7.50;;;16.00;85.10;;;;;;5033781;28;20774;-70
2022/06/15 10:54:28;;;;;;;11.63;5.03;;;16.00;85.00;;;;;;5025168;28;20028;-71
2022/06/15 11:02:47;;;;;;;7.68;3.80;;;16.10;84.00;;;;;;5039226;28;20132;-70
2022/06/15 11:05:19;;;;;;;12.00;3.13;;;16.10;83.40;;;;;;5032663;28;20026;-71
2022/06/15 11:07:56;;;;;;;8.45;2.95;;;16.20;83.20;;;;;;5029828;28;20125;-71
2022/06/15 11:10:32;;;;;;;6.35;2.78;;;16.20;83.00;;;;;;5025189;28;20034;-70
2022/06/15 11:13:21;;;;;;;9.40;4.00;;;16.20;82.70;;;;;;5030515;28;20037;-70
2022/06/15 11:18:41;;;;;;;17.80;5.43;;;16.40;82.40;;;;;;5022238;28;20048;-70
2022/06/15 11:21:16;;;;;;;10.55;4.40;;;16.40;82.40;;;;;;5019826;28;20032;-70
2022/06/15 11:23:49;;;;;;;7.20;3.85;;;16.40;82.40;;;;;;5030070;28;20027;-71
2022/06/15 11:29:09;;;;;;;4.10;1.98;;;16.50;80.80;;;;;;5023188;28;20079;-70
2022/06/15 11:31:38;;;;;;;4.22;1.65;;;16.50;79.90;;;;;;5024158;28;20492;-70
2022/06/15 11:34:14;;;;;;;4.97;1.20;;;16.50;78.60;;;;;;5018773;28;20036;-70
2022/06/15 11:37:19;;;;;;;5.28;1.92;;;16.50;77.80;;;;;;5031464;28;20069;-70
2022/06/15 11:39:55;;;;;;;4.65;1.38;;;16.50;76.90;;;;;;5007600;28;20041;-69
2022/06/15 11:42:23;;;;;;;5.35;1.63;;;16.60;76.40;;;;;;5023543;28;20037;-70
2022/06/15 11:44:50;;;;;;;8.40;2.15;;;16.70;76.10;;;;;;5026259;28;20064;-68
2022/06/15 11:47:42;;;;;;;5.80;2.05;;;16.70;75.30;;;;;;5020521;28;20646;-69
2022/06/15 11:50:27;;;;;;;5.72;2.03;;;16.70;74.70;;;;;;5027283;28;20049;-70
2022/06/15 11:53:11;;;;;;;8.07;2.13;;;16.80;74.60;;;;;;5028730;28;20125;-70
2022/06/15 11:55:45;;;;;;;5.00;1.80;;;16.90;74.70;;;;;;5025403;27;20162;-72
2022/06/15 11:58:26;;;;;;;5.25;1.92;;;17.00;74.60;;;;;;5023247;27;20040;-70
2022/06/15 12:01:14;;;;;;;4.13;1.10;;;16.90;73.20;;;;;;5022180;28;20116;-70
2022/06/15 12:03:53;;;;;;;1.77;0.82;;;17.00;72.60;;;;;;5019987;28;20048;-70
2022/06/15 12:06:41;;;;;;;2.78;1.60;;;17.00;72.10;;;;;;5027044;27;20716;-70
2022/06/15 12:09:31;;;;;;;1.95;1.13;;;17.10;71.20;;;;;;5023790;27;20038;-70
2022/06/15 12:12:38;;;;;;;5.63;1.38;;;17.10;71.20;;;;;;5013594;27;20065;-69
2022/06/15 12:15:04;;;;;;;3.70;1.45;;;17.20;71.40;;;;;;5027988;27;20034;-69
2022/06/15 12:17:49;;;;;;;4.63;1.33;;;17.20;70.70;;;;;;5025807;27;20488;-69
2022/06/15 12:20:21;;;;;;;4.75;1.60;;;17.20;70.20;;;;;;5026202;27;20522;-70
2022/06/15 12:23:18;;;;;;;8.60;1.23;;;17.30;70.60;;;;;;5022851;27;20889;-70
2022/06/15 12:26:09;;;;;;;3.55;1.50;;;17.30;70.90;;;;;;5023299;28;20505;-70
2022/06/15 12:29:02;;;;;;;10.73;4.00;;;17.40;71.30;;;;;;5026806;28;20150;-70
2022/06/15 12:31:37;;;;;;;15.52;1.55;;;17.40;70.70;;;;;;5027588;28;20049;-71
2022/06/15 12:34:32;;;;;;;5.72;1.83;;;17.50;70.20;;;;;;5026744;28;20045;-70
2022/06/15 12:37:06;;;;;;;4.70;1.52;;;17.50;69.90;;;;;;5027266;28;20484;-70
2022/06/15 12:40:01;;;;;;;2.70;0.60;;;17.60;69.30;;;;;;5027563;28;20045;-70
2022/06/15 12:42:28;;;;;;;2.70;0.88;;;17.60;69.40;;;;;;5023729;28;20519;-70
2022/06/15 12:45:24;;;;;;;4.40;0.80;;;17.60;69.50;;;;;;5027869;28;20545;-70
2022/06/15 12:47:55;;;;;;;5.05;0.90;;;17.50;68.70;;;;;;5025949;28;20499;-70
2022/06/15 12:50:35;;;;;;;4.72;1.33;;;17.40;68.80;;;;;;5026609;28;20037;-70
2022/06/15 12:53:14;;;;;;;6.50;0.80;;;17.30;69.30;;;;;;5026482;28;20086;-70
2022/06/15 12:56:08;;;;;;;7.75;1.20;;;17.30;70.40;;;;;;5026150;28;20055;-70
2022/06/15 12:59:24;;;;;;;5.95;1.25;;;17.20;71.40;;;;;;5026734;28;20034;-70
2022/06/15 13:02:04;;;;;;;9.80;2.10;;;17.10;72.30;;;;;;5039134;28;20438;-70
2022/06/15 13:05:09;;;;;;;32.40;3.83;;;17.00;72.60;;;;;;5026087;28;20321;-70
2022/06/15 13:07:38;;;;;;;5.13;2.20;;;16.90;73.20;;;;;;5028921;28;20017;-70
2022/06/15 13:10:08;;;;;;;3.13;1.77;;;16.80;73.70;;;;;;5025138;28;20025;-70
2022/06/15 13:13:22;;;;;;;12.60;2.78;;;16.80;73.90;;;;;;5026141;28;20426;-70
2022/06/15 13:15:51;;;;;;;5.10;1.52;;;16.70;74.00;;;;;;5027150;28;20038;-70
2022/06/15 13:18:22;;;;;;;2.50;1.42;;;16.60;74.10;;;;;;5026608;28;20510;-70
2022/06/15 13:20:48;;;;;;;7.28;1.67;;;16.50;74.30;;;;;;5026121;28;20034;-70
2022/06/15 13:23:26;;;;;;;12.85;2.50;;;16.50;75.30;;;;;;5027199;28;20086;-70
2022/06/15 13:25:56;;;;;;;6.30;1.60;;;16.40;76.10;;;;;;5023821;28;20040;-70
2022/06/15 13:28:27;;;;;;;7.80;1.90;;;16.40;76.30;;;;;;5024539;28;20809;-70
2022/06/15 13:30:58;;;;;;;7.53;1.63;;;16.40;76.70;;;;;;5025950;28;20488;-70
2022/06/15 13:33:55;;;;;;;3.88;1.63;;;16.30;76.90;;;;;;5026107;28;20038;-70
2022/06/15 13:36:23;;;;;;;3.60;1.17;;;16.30;77.20;;;;;;5026150;28;20038;-70